createdAt,value
2023-03-04T00:01:19.271Z,91.23
2023-03-04T00:04:23.926Z,91.28
2023-03-04T00:07:28.783Z,91.35
2023-03-04T00:10:34.832Z,91.42
2023-03-04T00:13:41.127Z,91.55
2023-03-04T00:16:39.845Z,91.72
2023-03-04T00:19:46.141Z,91.94
2023-03-04T00:22:52.029Z,92.17
2023-03-04T00:25:58.278Z,92.37
2023-03-04T00:29:05.136Z,92.31
2023-03-04T00:32:11.957Z,92.32
2023-03-04T00:35:19.696Z,92.54
2023-03-04T00:38:26.486Z,92.61
2023-03-04T00:41:31.892Z,92.40
2023-03-04T00:44:37.572Z,92.21
2023-03-04T00:47:43.522Z,92.04
2023-03-04T00:50:48.808Z,92.07
2023-03-04T00:53:54.496Z,92.15
2023-03-04T00:57:01.251Z,92.27
2023-03-04T01:00:06.642Z,92.34
2023-03-04T01:07:01.923Z,92.39
2023-03-04T01:10:10.829Z,92.58
2023-03-04T01:20:18.814Z,92.38
2023-03-04T01:23:24.996Z,91.85
2023-03-04T01:26:31.158Z,91.58
2023-03-04T01:29:37.044Z,91.33
2023-03-04T01:32:43.375Z,91.26
2023-03-04T01:35:49.652Z,91.17
2023-03-04T01:38:55.396Z,91.07
2023-03-04T01:42:01.903Z,90.99
2023-03-04T01:45:08.005Z,91.04
2023-03-04T01:48:14.539Z,91.09
2023-03-04T01:51:22.352Z,91.09
2023-03-04T01:54:28.716Z,91.10
2023-03-04T01:57:31.776Z,91.07
2023-03-04T02:00:48.516Z,90.98
2023-03-04T02:03:53.748Z,90.90
2023-03-04T02:07:01.007Z,90.92
2023-03-04T02:10:08.208Z,90.96
2023-03-04T02:13:16.076Z,90.79
2023-03-04T02:16:23.986Z,90.84
2023-03-04T02:19:35.018Z,90.71
2023-03-04T02:22:40.214Z,90.59
2023-03-04T02:25:56.184Z,90.55
2023-03-04T02:29:02.474Z,90.69
2023-03-04T02:32:07.916Z,90.71
2023-03-04T02:35:15.012Z,90.59
2023-03-04T02:38:21.601Z,90.55
2023-03-04T02:41:28.461Z,90.63
2023-03-04T02:44:38.104Z,90.79
2023-03-04T02:47:43.763Z,91.04
2023-03-04T02:51:01.368Z,91.27
2023-03-04T02:54:07.156Z,91.57
2023-03-04T02:57:16.205Z,91.76
2023-03-04T03:00:26.626Z,91.95
2023-03-04T03:03:33.865Z,92.23
2023-03-04T03:06:42.193Z,92.54
2023-03-04T03:09:48.448Z,92.77
2023-03-04T03:12:53.952Z,93.03
2023-03-04T03:16:00.082Z,93.33
2023-03-04T03:19:06.552Z,93.57
2023-03-04T03:22:13.163Z,93.87
2023-03-04T03:25:13.853Z,94.12
2023-03-04T03:27:59.970Z,94.33
2023-03-04T03:30:53.750Z,94.64
2023-03-04T03:33:39.966Z,94.89
2023-03-04T03:36:32.782Z,95.11
2023-03-04T03:39:19.096Z,95.32
2023-03-04T03:42:12.319Z,95.39
2023-03-04T03:44:58.612Z,95.48
2023-03-04T03:47:51.124Z,95.65
2023-03-04T03:50:56.688Z,95.80
2023-03-04T03:54:02.393Z,95.90
2023-03-04T03:57:08.817Z,95.89
2023-03-04T04:00:15.243Z,96.08
2023-03-04T04:03:21.552Z,96.28
2023-03-04T04:06:27.263Z,96.34
2023-03-04T04:09:32.507Z,96.26
2023-03-04T04:12:38.704Z,96.32
2023-03-04T04:15:45.290Z,96.39
2023-03-04T04:18:51.540Z,96.58
2023-03-04T04:21:59.825Z,96.61
2023-03-04T04:24:59.213Z,96.61
2023-03-04T04:28:06.223Z,96.72
2023-03-04T04:31:11.523Z,96.80
2023-03-04T04:34:17.554Z,96.97
2023-03-04T04:37:23.348Z,97.13
2023-03-04T04:40:28.759Z,97.15
2023-03-04T04:43:34.056Z,97.21
2023-03-04T04:46:40.163Z,97.19
2023-03-04T04:49:45.904Z,97.14
2023-03-04T04:55:52.631Z,96.99
2023-03-04T04:59:00.457Z,96.93
2023-03-04T05:02:08.706Z,96.87
2023-03-04T05:05:14.240Z,96.72
2023-03-04T05:08:19.880Z,96.56
2023-03-04T05:11:26.945Z,96.18
2023-03-04T05:14:32.857Z,95.96
2023-03-04T05:17:39.472Z,95.67
2023-03-04T05:20:45.332Z,95.53
2023-03-04T05:23:55.303Z,95.36
2023-03-04T05:27:01.828Z,95.21
2023-03-04T05:30:07.641Z,95.05
2023-03-04T05:33:14.200Z,94.89
2023-03-04T05:36:21.391Z,94.65
2023-03-04T05:39:28.105Z,94.49
2023-03-04T05:42:34.110Z,94.09
2023-03-04T05:45:39.889Z,93.96
2023-03-04T05:48:45.502Z,93.85
2023-03-04T05:51:50.534Z,93.71
2023-03-04T05:54:58.061Z,93.46
2023-03-04T05:58:03.878Z,93.18
2023-03-04T06:01:08.782Z,92.83
2023-03-04T06:04:13.563Z,92.34
2023-03-04T06:07:18.408Z,92.12
2023-03-04T06:10:26.927Z,92.03
2023-03-04T06:13:33.169Z,91.87
2023-03-04T06:16:39.388Z,91.51
2023-03-04T06:19:46.055Z,91.40
2023-03-04T06:22:51.688Z,91.59
2023-03-04T06:25:57.977Z,91.19
2023-03-04T06:29:04.026Z,90.90
2023-03-04T06:32:10.682Z,90.46
2023-03-04T06:35:17.321Z,90.23
2023-03-04T06:38:22.557Z,90.05
2023-03-04T06:41:28.871Z,89.71
2023-03-04T06:44:34.011Z,89.78
2023-03-04T06:47:39.924Z,89.28
2023-03-04T06:50:46.185Z,89.08
2023-03-04T06:53:52.244Z,89.22
2023-03-04T06:56:57.532Z,89.09
2023-03-04T07:00:03.207Z,89.42
2023-03-04T07:03:08.910Z,89.57
2023-03-04T07:06:15.365Z,88.94
2023-03-04T07:09:22.126Z,88.52
2023-03-04T07:12:28.795Z,88.70
2023-03-04T07:15:35.322Z,88.94
2023-03-04T07:18:43.148Z,88.64
2023-03-04T07:21:48.934Z,88.41
2023-03-04T07:24:55.161Z,88.03
2023-03-04T07:28:01.983Z,88.00
2023-03-04T07:31:07.056Z,87.31
2023-03-04T07:34:22.097Z,86.93
2023-03-04T07:37:27.557Z,86.91
2023-03-04T07:40:33.308Z,86.88
2023-03-04T07:43:38.719Z,86.19
2023-03-04T07:46:43.783Z,85.47
2023-03-04T07:49:43.170Z,84.98
2023-03-04T07:52:48.300Z,84.48
2023-03-04T07:55:54.064Z,83.20
2023-03-04T07:59:01.230Z,82.71
2023-03-04T08:02:07.212Z,82.42
2023-03-04T08:05:12.062Z,82.32
2023-03-04T08:08:18.229Z,81.84
2023-03-04T08:11:28.911Z,81.47
2023-03-04T08:14:32.009Z,80.77
2023-03-04T08:17:37.631Z,80.36
2023-03-04T08:20:43.836Z,79.63
2023-03-04T08:23:49.198Z,77.62
2023-03-04T08:26:58.897Z,77.43
2023-03-04T08:30:04.081Z,76.80
2023-03-04T08:33:10.109Z,75.44
2023-03-04T08:36:15.985Z,74.04
2023-03-04T08:39:21.800Z,75.54
2023-03-04T08:42:28.332Z,75.18
2023-03-04T08:45:27.373Z,75.17
2023-03-04T08:48:13.102Z,74.52
2023-03-04T08:51:05.534Z,74.28
2023-03-04T08:53:52.026Z,74.51
2023-03-04T08:56:44.670Z,73.31
2023-03-04T08:59:29.757Z,72.59
2023-03-04T09:02:22.309Z,72.47
2023-03-04T09:05:08.440Z,72.97
2023-03-04T09:08:01.535Z,72.31
2023-03-04T09:10:47.918Z,72.04
2023-03-04T09:13:40.549Z,68.65
2023-03-04T09:16:33.096Z,68.85
2023-03-04T09:19:38.084Z,70.17
2023-03-04T09:22:43.364Z,69.83
2023-03-04T09:25:48.412Z,68.85
2023-03-04T09:28:54.224Z,70.29
2023-03-04T09:31:53.390Z,70.36
2023-03-04T09:35:01.248Z,69.56
2023-03-04T09:38:07.459Z,69.51
2023-03-04T09:41:13.984Z,69.89
2023-03-04T09:44:23.961Z,68.87
2023-03-04T09:47:31.957Z,67.79
2023-03-04T09:50:38.512Z,67.02
2023-03-04T09:53:57.044Z,66.92
2023-03-04T09:57:02.785Z,67.23
2023-03-04T10:00:38.262Z,66.84
2023-03-04T10:03:55.593Z,64.82
2023-03-04T10:07:01.500Z,64.82
2023-03-04T10:10:20.588Z,65.09
2023-03-04T10:13:38.728Z,65.76
2023-03-04T10:16:48.365Z,65.82
2023-03-04T10:20:28.624Z,64.17
2023-03-04T10:23:37.318Z,64.30
2023-03-04T10:26:45.004Z,64.27
2023-03-04T10:29:51.885Z,65.65
2023-03-04T10:33:03.096Z,62.97
2023-03-04T10:36:47.035Z,64.04
2023-03-04T10:40:00.944Z,65.30
2023-03-04T10:43:06.522Z,62.77
2023-03-04T10:46:12.587Z,63.30
2023-03-04T10:49:17.584Z,62.05
2023-03-04T10:52:43.196Z,61.59
2023-03-04T10:55:59.799Z,62.25
2023-03-04T10:59:06.723Z,61.76
2023-03-04T11:02:14.377Z,62.33
2023-03-04T11:05:33.689Z,60.16
2023-03-04T11:08:39.922Z,58.00
2023-03-04T11:11:54.362Z,57.25
2023-03-04T11:15:05.071Z,57.78
2023-03-04T11:18:16.930Z,57.33
2023-03-04T11:21:22.479Z,57.66
2023-03-04T11:24:33.066Z,56.10
2023-03-04T11:27:57.176Z,56.36
2023-03-04T11:31:22.242Z,56.51
2023-03-04T11:34:49.719Z,57.29
2023-03-04T11:38:21.110Z,57.95
2023-03-04T11:41:51.617Z,55.84
2023-03-04T11:44:59.069Z,56.73
2023-03-04T11:48:25.273Z,56.75
2023-03-04T11:51:52.278Z,55.38
2023-03-04T11:55:08.045Z,54.79
2023-03-04T11:58:43.193Z,55.55
2023-03-04T12:02:30.933Z,57.24
2023-03-04T12:05:59.209Z,57.21
2023-03-04T12:10:00.332Z,56.08
2023-03-04T12:13:30.922Z,55.37
2023-03-04T12:17:19.214Z,55.11
2023-03-04T12:20:40.397Z,54.61
2023-03-04T12:24:25.244Z,55.99
2023-03-04T12:28:04.903Z,55.45
2023-03-04T12:31:26.887Z,54.76
2023-03-04T12:34:51.960Z,54.82
2023-03-04T12:38:17.236Z,55.31
2023-03-04T12:42:03.762Z,56.09
2023-03-04T12:45:37.504Z,55.67
2023-03-04T12:48:54.322Z,56.36
2023-03-04T12:52:08.245Z,55.69
2023-03-04T12:55:18.757Z,55.92
2023-03-04T12:58:41.346Z,55.82
2023-03-04T13:01:53.956Z,54.78
2023-03-04T13:05:19.650Z,54.49
2023-03-04T13:08:56.088Z,54.86
2023-03-04T13:12:07.679Z,54.86
2023-03-04T13:15:28.225Z,54.90
2023-03-04T13:18:51.547Z,54.97
2023-03-04T13:22:01.457Z,54.29
2023-03-04T13:25:06.578Z,54.61
2023-03-04T13:28:27.847Z,54.67
2023-03-04T13:31:38.787Z,55.54
2023-03-04T13:35:06.244Z,54.98
2023-03-04T13:38:15.599Z,54.96
2023-03-04T13:41:46.945Z,54.63
2023-03-04T13:45:04.249Z,53.41
2023-03-04T13:48:09.955Z,53.51
2023-03-04T13:51:28.607Z,53.43
2023-03-04T13:54:42.772Z,53.82
2023-03-04T13:57:49.267Z,53.78
2023-03-04T14:01:06.727Z,54.38
2023-03-04T14:04:14.542Z,53.88
2023-03-04T14:07:46.434Z,54.14
2023-03-04T14:10:52.615Z,54.37
2023-03-04T14:13:59.628Z,54.04
2023-03-04T14:17:10.747Z,54.64
2023-03-04T14:20:10.190Z,55.22
2023-03-04T14:23:17.758Z,55.62
2023-03-04T14:26:29.489Z,55.87
2023-03-04T14:29:42.415Z,55.46
2023-03-04T14:32:48.725Z,54.68
2023-03-04T14:35:57.374Z,54.83
2023-03-04T14:39:10.156Z,55.61
2023-03-04T14:42:21.985Z,56.13
2023-03-04T14:45:29.578Z,55.83
2023-03-04T14:48:43.310Z,55.51
2023-03-04T14:51:55.165Z,55.44
2023-03-04T14:55:01.802Z,55.59
2023-03-04T14:58:11.155Z,56.22
2023-03-04T15:01:38.095Z,56.61
2023-03-04T15:04:46.033Z,56.98
2023-03-04T15:07:53.433Z,57.61
2023-03-04T15:10:59.187Z,57.66
2023-03-04T15:14:09.115Z,57.71
2023-03-04T15:17:14.820Z,58.36
2023-03-04T15:20:27.515Z,58.66
2023-03-04T15:23:33.202Z,59.30
2023-03-04T15:26:38.852Z,59.77
2023-03-04T15:29:44.152Z,59.81
2023-03-04T15:32:51.194Z,59.98
2023-03-04T15:36:01.353Z,59.79
2023-03-04T15:39:07.166Z,59.90
2023-03-04T15:42:13.768Z,59.92
2023-03-04T15:45:44.959Z,60.25
2023-03-04T15:48:50.824Z,60.64
2023-03-04T15:51:57.644Z,61.22
2023-03-04T15:55:04.340Z,61.84
2023-03-04T15:58:11.121Z,62.45
2023-03-04T16:01:17.934Z,62.76
2023-03-04T16:04:28.253Z,63.14
2023-03-04T16:07:36.981Z,63.51
2023-03-04T16:10:43.526Z,64.06
2023-03-04T16:13:48.985Z,64.86
2023-03-04T16:16:53.321Z,65.49
2023-03-04T16:19:59.578Z,65.90
2023-03-04T16:23:09.014Z,66.27
2023-03-04T16:26:15.353Z,66.62
2023-03-04T16:29:20.935Z,67.06
2023-03-04T16:32:27.209Z,67.46
2023-03-04T16:35:35.883Z,67.95
2023-03-04T16:38:44.718Z,68.37
2023-03-04T16:41:51.584Z,68.78
2023-03-04T16:44:58.029Z,69.21
2023-03-04T16:47:58.221Z,69.64
2023-03-04T16:51:03.924Z,70.26
2023-03-04T16:54:11.917Z,71.23
2023-03-04T16:57:19.490Z,71.93
2023-03-04T17:00:25.859Z,72.75
2023-03-04T17:03:31.557Z,73.10
2023-03-04T17:06:37.304Z,73.48
2023-03-04T17:09:44.482Z,73.70
2023-03-04T17:12:44.322Z,73.86
2023-03-04T17:15:52.183Z,74.03
2023-03-04T17:18:58.726Z,74.12
2023-03-04T17:22:05.240Z,74.23
2023-03-04T17:25:11.263Z,74.42
2023-03-04T17:28:17.431Z,74.60
2023-03-04T17:31:25.834Z,74.79
2023-03-04T17:34:32.442Z,75.17
2023-03-04T17:37:37.721Z,75.54
2023-03-04T17:40:43.500Z,75.81
2023-03-04T17:43:50.982Z,76.03
2023-03-04T17:46:57.058Z,76.29
2023-03-04T17:50:03.887Z,76.51
2023-03-04T17:53:10.579Z,76.82
2023-03-04T17:56:17.995Z,77.04
2023-03-04T17:59:26.499Z,77.42
2023-03-04T18:02:32.198Z,77.63
2023-03-04T18:05:38.326Z,77.92
2023-03-04T18:08:44.621Z,78.28
2023-03-04T18:11:52.021Z,78.62
2023-03-04T18:14:58.092Z,79.03
2023-03-04T18:18:06.002Z,79.58
2023-03-04T18:21:14.945Z,80.01
2023-03-04T18:24:20.805Z,80.52
2023-03-04T18:27:26.328Z,81.01
2023-03-04T18:30:33.994Z,81.44
2023-03-04T18:33:40.916Z,81.94
2023-03-04T18:36:47.396Z,82.33
2023-03-04T18:39:54.699Z,82.75
2023-03-04T18:43:00.328Z,83.03
2023-03-04T18:46:21.618Z,83.29
2023-03-04T18:49:28.032Z,83.56
2023-03-04T18:52:34.093Z,83.96
2023-03-04T18:55:40.245Z,84.23
2023-03-04T18:58:47.242Z,84.44
2023-03-04T19:01:53.041Z,84.70
2023-03-04T19:04:59.116Z,84.93
2023-03-04T19:08:04.840Z,85.28
2023-03-04T19:11:12.492Z,85.50
2023-03-04T19:14:18.236Z,85.83
2023-03-04T19:17:23.757Z,86.17
2023-03-04T19:20:30.922Z,86.55
2023-03-04T19:23:37.161Z,86.89
2023-03-04T19:26:44.315Z,87.25
2023-03-04T19:29:49.927Z,87.70
2023-03-04T19:32:56.255Z,88.01
2023-03-04T19:36:02.124Z,88.32
2023-03-04T19:39:08.292Z,88.70
2023-03-04T19:42:07.696Z,89.05
2023-03-04T19:45:03.507Z,89.32
2023-03-04T19:48:10.658Z,89.58
2023-03-04T19:51:17.037Z,89.94
2023-03-04T19:54:24.165Z,90.18
2023-03-04T19:57:29.907Z,90.44
2023-03-04T20:00:35.668Z,90.59
2023-03-04T20:03:41.618Z,90.95
2023-03-04T20:06:47.745Z,91.26
2023-03-04T20:09:53.258Z,91.57
2023-03-04T20:12:59.648Z,92.09
2023-03-04T20:16:06.014Z,92.55
2023-03-04T20:19:11.392Z,92.85
2023-03-04T20:22:17.180Z,93.16
2023-03-04T20:25:23.071Z,93.29
2023-03-04T20:28:29.047Z,93.44
2023-03-04T20:31:45.931Z,93.63
2023-03-04T20:34:54.729Z,93.89
2023-03-04T20:37:59.516Z,94.59
2023-03-04T20:41:06.903Z,95.15
2023-03-04T20:44:13.523Z,95.56
2023-03-04T20:47:21.208Z,95.94
2023-03-04T20:50:20.481Z,96.31
2023-03-04T20:53:27.294Z,96.96
2023-03-04T20:56:33.947Z,97.65
2023-03-04T20:59:40.653Z,98.25
2023-03-04T21:02:45.898Z,98.76
2023-03-04T21:05:52.371Z,99.08
2023-03-04T21:08:59.545Z,99.75
2023-03-04T21:12:01.066Z,100.00
2023-03-04T21:15:07.494Z,100.00
2023-03-04T21:18:13.730Z,100.00
2023-03-04T21:21:35.038Z,100.00
2023-03-04T21:24:46.910Z,100.00
2023-03-04T21:27:53.719Z,100.00
2023-03-04T21:31:01.279Z,100.00
2023-03-04T21:34:08.020Z,100.00
2023-03-04T21:37:13.340Z,100.00
2023-03-04T21:40:20.260Z,100.00
2023-03-04T21:43:27.355Z,100.00
2023-03-04T21:46:32.798Z,100.00
2023-03-04T21:49:39.170Z,100.00
2023-03-04T21:52:46.846Z,100.00
2023-03-04T21:55:56.311Z,100.00
2023-03-04T21:59:02.526Z,100.00
2023-03-04T22:02:08.619Z,100.00
2023-03-04T22:05:14.307Z,100.00
2023-03-04T22:08:20.172Z,100.00
2023-03-04T22:11:27.916Z,100.00
2023-03-04T22:14:36.881Z,100.00
2023-03-04T22:17:44.147Z,100.00
2023-03-04T22:20:50.390Z,100.00
2023-03-04T22:23:56.328Z,100.00
2023-03-04T22:27:04.355Z,100.00
2023-03-04T22:30:10.938Z,100.00
2023-03-04T22:33:16.849Z,100.00
2023-03-04T22:36:24.161Z,100.00
2023-03-04T22:39:31.466Z,100.00
2023-03-04T22:42:37.643Z,100.00
2023-03-04T22:45:43.643Z,100.00
2023-03-04T22:48:49.229Z,100.00
2023-03-04T22:51:55.879Z,100.00
2023-03-04T22:55:02.757Z,100.00
2023-03-04T22:58:09.006Z,100.00
2023-03-04T23:01:08.147Z,100.00
2023-03-04T23:04:14.100Z,100.00
2023-03-04T23:07:20.390Z,100.00
2023-03-04T23:10:33.708Z,100.00
2023-03-04T23:13:41.204Z,100.00
2023-03-04T23:16:49.816Z,100.00
2023-03-04T23:19:55.071Z,100.00
2023-03-04T23:23:01.256Z,100.00
2023-03-04T23:26:07.687Z,100.00
2023-03-04T23:29:16.192Z,100.00
2023-03-04T23:32:21.952Z,100.00
2023-03-04T23:35:27.927Z,100.00
2023-03-04T23:38:33.837Z,100.00
2023-03-04T23:41:40.919Z,100.00
2023-03-04T23:44:45.714Z,100.00
2023-03-04T23:47:51.201Z,100.00
2023-03-04T23:50:55.558Z,100.00
2023-03-04T23:54:00.732Z,100.00
2023-03-04T23:57:07.107Z,100.00
